sensor_id;sensor_type;location;lat;lon;timestamp;P1;durP1;ratioP1;P2;durP2;ratioP2
71172;SDS011;58875;51.996;4.504;2022-07-29T00:00:40;2.19;;;2.19;;
71172;SDS011;58875;51.996;4.504;2022-07-29T00:03:09;1.93;;;1.93;;
71172;SDS011;58875;51.996;4.504;2022-07-29T00:05:35;1.82;;;1.82;;
71172;SDS011;58875;51.996;4.504;2022-07-29T00:08:01;2.11;;;2.11;;
71172;SDS011;58875;51.996;4.504;2022-07-29T00:10:26;2.09;;;2.09;;
71172;SDS011;58875;51.996;4.504;2022-07-29T00:12:52;2.02;;;2.02;;
71172;SDS011;58875;51.996;4.504;2022-07-29T00:15:17;2.04;;;2.04;;
71172;SDS011;58875;51.996;4.504;2022-07-29T00:17:43;2.01;;;2.01;;
71172;SDS011;58875;51.996;4.504;2022-07-29T00:20:09;2.09;;;2.09;;
71172;SDS011;58875;51.996;4.504;2022-07-29T00:22:36;2.07;;;2.07;;
71172;SDS011;58875;51.996;4.504;2022-07-29T00:25:03;2.09;;;2.09;;
71172;SDS011;58875;51.996;4.504;2022-07-29T00:27:29;2.11;;;2.11;;
71172;SDS011;58875;51.996;4.504;2022-07-29T00:29:55;2.01;;;2.01;;
71172;SDS011;58875;51.996;4.504;2022-07-29T00:32:20;1.97;;;1.97;;
71172;SDS011;58875;51.996;4.504;2022-07-29T00:34:46;2.05;;;2.05;;
71172;SDS011;58875;51.996;4.504;2022-07-29T00:37:29;2.10;;;2.10;;
71172;SDS011;58875;51.996;4.504;2022-07-29T00:39:55;1.96;;;1.96;;
71172;SDS011;58875;51.996;4.504;2022-07-29T00:42:20;2.05;;;2.05;;
71172;SDS011;58875;51.996;4.504;2022-07-29T00:44:46;1.98;;;1.98;;
71172;SDS011;58875;51.996;4.504;2022-07-29T00:47:12;1.97;;;1.97;;
71172;SDS011;58875;51.996;4.504;2022-07-29T00:49:41;2.11;;;2.11;;
71172;SDS011;58875;51.996;4.504;2022-07-29T00:52:10;2.18;;;2.18;;
71172;SDS011;58875;51.996;4.504;2022-07-29T00:54:37;2.34;;;2.34;;
71172;SDS011;58875;51.996;4.504;2022-07-29T00:57:05;2.17;;;2.17;;
71172;SDS011;58875;51.996;4.504;2022-07-29T00:59:32;2.09;;;2.09;;
71172;SDS011;58875;51.996;4.504;2022-07-29T01:01:57;2.36;;;2.36;;
71172;SDS011;58875;51.996;4.504;2022-07-29T01:04:23;2.19;;;2.19;;
71172;SDS011;58875;51.996;4.504;2022-07-29T01:06:49;2.36;;;2.36;;
71172;SDS011;58875;51.996;4.504;2022-07-29T01:09:16;2.28;;;2.28;;
71172;SDS011;58875;51.996;4.504;2022-07-29T01:11:44;2.21;;;2.21;;
71172;SDS011;58875;51.996;4.504;2022-07-29T01:14:12;2.37;;;2.37;;
71172;SDS011;58875;51.996;4.504;2022-07-29T01:16:51;2.37;;;2.37;;
71172;SDS011;58875;51.996;4.504;2022-07-29T01:19:45;2.47;;;2.47;;
71172;SDS011;58875;51.996;4.504;2022-07-29T01:22:25;2.55;;;2.55;;
71172;SDS011;58875;51.996;4.504;2022-07-29T01:30:21;2.44;;;2.44;;
71172;SDS011;58875;51.996;4.504;2022-07-29T01:32:50;2.39;;;2.39;;
71172;SDS011;58875;51.996;4.504;2022-07-29T01:35:38;2.32;;;2.32;;
71172;SDS011;58875;51.996;4.504;2022-07-29T01:38:12;2.43;;;2.43;;
71172;SDS011;58875;51.996;4.504;2022-07-29T01:40:46;2.35;;;2.35;;
71172;SDS011;58875;51.996;4.504;2022-07-29T01:43:17;2.58;;;2.58;;
71172;SDS011;58875;51.996;4.504;2022-07-29T01:45:56;2.46;;;2.46;;
71172;SDS011;58875;51.996;4.504;2022-07-29T01:48:43;2.62;;;2.62;;
71172;SDS011;58875;51.996;4.504;2022-07-29T01:51:20;2.62;;;2.62;;
71172;SDS011;58875;51.996;4.504;2022-07-29T01:54:10;2.51;;;2.51;;
71172;SDS011;58875;51.996;4.504;2022-07-29T01:56:42;2.51;;;2.51;;
71172;SDS011;58875;51.996;4.504;2022-07-29T01:59:12;2.55;;;2.55;;
71172;SDS011;58875;51.996;4.504;2022-07-29T02:01:38;2.73;;;2.73;;
71172;SDS011;58875;51.996;4.504;2022-07-29T02:04:06;2.42;;;2.42;;
71172;SDS011;58875;51.996;4.504;2022-07-29T02:06:36;2.46;;;2.46;;
71172;SDS011;58875;51.996;4.504;2022-07-29T02:09:03;2.68;;;2.68;;
71172;SDS011;58875;51.996;4.504;2022-07-29T02:11:32;2.44;;;2.44;;
71172;SDS011;58875;51.996;4.504;2022-07-29T02:14:00;2.66;;;2.66;;
71172;SDS011;58875;51.996;4.504;2022-07-29T02:16:29;2.70;;;2.70;;
71172;SDS011;58875;51.996;4.504;2022-07-29T02:18:58;2.51;;;2.51;;
71172;SDS011;58875;51.996;4.504;2022-07-29T02:21:27;2.57;;;2.57;;
71172;SDS011;58875;51.996;4.504;2022-07-29T02:23:56;2.50;;;2.50;;
71172;SDS011;58875;51.996;4.504;2022-07-29T02:26:26;2.78;;;2.78;;
71172;SDS011;58875;51.996;4.504;2022-07-29T02:28:55;2.43;;;2.43;;
71172;SDS011;58875;51.996;4.504;2022-07-29T02:31:23;2.70;;;2.70;;
71172;SDS011;58875;51.996;4.504;2022-07-29T02:33:53;2.54;;;2.54;;
71172;SDS011;58875;51.996;4.504;2022-07-29T02:36:21;2.70;;;2.70;;
71172;SDS011;58875;51.996;4.504;2022-07-29T02:38:48;2.52;;;2.52;;
71172;SDS011;58875;51.996;4.504;2022-07-29T02:41:17;2.75;;;2.75;;
71172;SDS011;58875;51.996;4.504;2022-07-29T02:43:48;2.74;;;2.74;;
71172;SDS011;58875;51.996;4.504;2022-07-29T02:46:20;2.79;;;2.79;;
71172;SDS011;58875;51.996;4.504;2022-07-29T02:49:14;2.53;;;2.53;;
71172;SDS011;58875;51.996;4.504;2022-07-29T02:52:01;2.80;;;2.80;;
71172;SDS011;58875;51.996;4.504;2022-07-29T02:54:44;2.61;;;2.61;;
71172;SDS011;58875;51.996;4.504;2022-07-29T02:57:37;2.68;;;2.68;;
71172;SDS011;58875;51.996;4.504;2022-07-29T03:00:07;2.51;;;2.51;;
71172;SDS011;58875;51.996;4.504;2022-07-29T03:02:38;2.56;;;2.56;;
71172;SDS011;58875;51.996;4.504;2022-07-29T03:05:10;2.72;;;2.72;;
71172;SDS011;58875;51.996;4.504;2022-07-29T03:07:43;2.66;;;2.66;;
71172;SDS011;58875;51.996;4.504;2022-07-29T03:10:12;2.89;;;2.89;;
71172;SDS011;58875;51.996;4.504;2022-07-29T03:12:39;2.46;;;2.46;;
71172;SDS011;58875;51.996;4.504;2022-07-29T03:15:06;2.95;;;2.95;;
71172;SDS011;58875;51.996;4.504;2022-07-29T03:17:33;2.66;;;2.66;;
71172;SDS011;58875;51.996;4.504;2022-07-29T03:19:59;2.85;;;2.85;;
71172;SDS011;58875;51.996;4.504;2022-07-29T03:22:26;2.83;;;2.83;;
71172;SDS011;58875;51.996;4.504;2022-07-29T03:24:52;2.75;;;2.75;;
71172;SDS011;58875;51.996;4.504;2022-07-29T03:27:18;3.03;;;3.03;;
71172;SDS011;58875;51.996;4.504;2022-07-29T03:29:44;2.84;;;2.84;;
71172;SDS011;58875;51.996;4.504;2022-07-29T03:32:09;2.80;;;2.80;;
71172;SDS011;58875;51.996;4.504;2022-07-29T03:34:35;2.95;;;2.95;;
71172;SDS011;58875;51.996;4.504;2022-07-29T03:37:02;3.06;;;3.06;;
71172;SDS011;58875;51.996;4.504;2022-07-29T03:39:33;3.01;;;3.01;;
71172;SDS011;58875;51.996;4.504;2022-07-29T03:42:03;3.22;;;3.22;;
71172;SDS011;58875;51.996;4.504;2022-07-29T03:44:32;3.24;;;3.24;;
71172;SDS011;58875;51.996;4.504;2022-07-29T03:47:00;3.26;;;3.26;;
71172;SDS011;58875;51.996;4.504;2022-07-29T03:49:29;3.35;;;3.35;;
71172;SDS011;58875;51.996;4.504;2022-07-29T03:51:57;3.28;;;3.28;;
71172;SDS011;58875;51.996;4.504;2022-07-29T03:54:22;3.19;;;3.19;;
71172;SDS011;58875;51.996;4.504;2022-07-29T03:56:48;3.23;;;3.23;;
71172;SDS011;58875;51.996;4.504;2022-07-29T03:59:17;3.25;;;3.25;;
71172;SDS011;58875;51.996;4.504;2022-07-29T04:01:46;3.30;;;3.30;;
71172;SDS011;58875;51.996;4.504;2022-07-29T04:04:13;3.28;;;3.28;;
71172;SDS011;58875;51.996;4.504;2022-07-29T04:06:40;3.53;;;3.53;;
71172;SDS011;58875;51.996;4.504;2022-07-29T04:09:07;3.69;;;3.69;;
71172;SDS011;58875;51.996;4.504;2022-07-29T04:11:32;3.61;;;3.61;;
71172;SDS011;58875;51.996;4.504;2022-07-29T04:13:59;3.43;;;3.43;;
71172;SDS011;58875;51.996;4.504;2022-07-29T04:16:24;3.94;;;3.94;;
71172;SDS011;58875;51.996;4.504;2022-07-29T04:18:50;3.68;;;3.68;;
71172;SDS011;58875;51.996;4.504;2022-07-29T04:21:15;3.71;;;3.71;;
71172;SDS011;58875;51.996;4.504;2022-07-29T04:23:41;3.46;;;3.46;;
71172;SDS011;58875;51.996;4.504;2022-07-29T04:26:10;3.88;;;3.88;;
71172;SDS011;58875;51.996;4.504;2022-07-29T04:28:36;3.82;;;3.82;;
71172;SDS011;58875;51.996;4.504;2022-07-29T04:31:04;3.76;;;3.76;;
71172;SDS011;58875;51.996;4.504;2022-07-29T04:33:30;3.91;;;3.91;;
71172;SDS011;58875;51.996;4.504;2022-07-29T04:35:55;3.84;;;3.84;;
71172;SDS011;58875;51.996;4.504;2022-07-29T04:38:21;3.84;;;3.84;;
71172;SDS011;58875;51.996;4.504;2022-07-29T04:40:47;3.75;;;3.75;;
71172;SDS011;58875;51.996;4.504;2022-07-29T04:43:12;3.73;;;3.73;;
71172;SDS011;58875;51.996;4.504;2022-07-29T04:45:38;4.06;;;4.06;;
71172;SDS011;58875;51.996;4.504;2022-07-29T04:48:04;3.87;;;3.87;;
71172;SDS011;58875;51.996;4.504;2022-07-29T04:50:29;3.90;;;3.90;;
71172;SDS011;58875;51.996;4.504;2022-07-29T04:52:55;3.92;;;3.92;;
71172;SDS011;58875;51.996;4.504;2022-07-29T04:55:20;3.94;;;3.94;;
71172;SDS011;58875;51.996;4.504;2022-07-29T04:57:46;3.67;;;3.67;;
71172;SDS011;58875;51.996;4.504;2022-07-29T05:00:12;4.13;;;4.13;;
71172;SDS011;58875;51.996;4.504;2022-07-29T05:02:38;4.04;;;4.04;;
71172;SDS011;58875;51.996;4.504;2022-07-29T05:05:03;3.78;;;3.78;;
71172;SDS011;58875;51.996;4.504;2022-07-29T05:07:29;3.86;;;3.86;;
71172;SDS011;58875;51.996;4.504;2022-07-29T05:09:55;3.65;;;3.65;;
71172;SDS011;58875;51.996;4.504;2022-07-29T05:12:22;3.83;;;3.83;;
71172;SDS011;58875;51.996;4.504;2022-07-29T05:14:48;3.87;;;3.87;;
71172;SDS011;58875;51.996;4.504;2022-07-29T05:17:14;3.92;;;3.92;;
71172;SDS011;58875;51.996;4.504;2022-07-29T05:19:39;3.61;;;3.61;;
71172;SDS011;58875;51.996;4.504;2022-07-29T05:22:05;3.73;;;3.73;;
71172;SDS011;58875;51.996;4.504;2022-07-29T05:24:30;3.65;;;3.65;;
71172;SDS011;58875;51.996;4.504;2022-07-29T05:26:56;3.61;;;3.61;;
71172;SDS011;58875;51.996;4.504;2022-07-29T05:29:21;3.72;;;3.72;;
71172;SDS011;58875;51.996;4.504;2022-07-29T05:31:47;3.64;;;3.64;;
71172;SDS011;58875;51.996;4.504;2022-07-29T05:34:12;3.70;;;3.70;;
71172;SDS011;58875;51.996;4.504;2022-07-29T05:36:38;3.42;;;3.42;;
71172;SDS011;58875;51.996;4.504;2022-07-29T05:39:03;3.30;;;3.30;;
71172;SDS011;58875;51.996;4.504;2022-07-29T05:41:31;3.34;;;3.34;;
71172;SDS011;58875;51.996;4.504;2022-07-29T05:43:57;3.44;;;3.44;;
71172;SDS011;58875;51.996;4.504;2022-07-29T05:46:23;3.46;;;3.46;;
71172;SDS011;58875;51.996;4.504;2022-07-29T05:48:49;3.45;;;3.45;;
71172;SDS011;58875;51.996;4.504;2022-07-29T05:51:14;3.24;;;3.24;;
71172;SDS011;58875;51.996;4.504;2022-07-29T05:53:40;3.47;;;3.47;;
71172;SDS011;58875;51.996;4.504;2022-07-29T05:56:06;3.27;;;3.27;;
71172;SDS011;58875;51.996;4.504;2022-07-29T05:58:32;3.26;;;3.26;;
71172;SDS011;58875;51.996;4.504;2022-07-29T06:00:58;3.29;;;3.29;;
71172;SDS011;58875;51.996;4.504;2022-07-29T06:03:26;3.20;;;3.20;;
71172;SDS011;58875;51.996;4.504;2022-07-29T06:05:52;3.20;;;3.20;;
71172;SDS011;58875;51.996;4.504;2022-07-29T06:08:18;3.13;;;3.13;;
71172;SDS011;58875;51.996;4.504;2022-07-29T06:10:43;3.04;;;3.04;;
71172;SDS011;58875;51.996;4.504;2022-07-29T06:13:10;3.10;;;3.10;;
71172;SDS011;58875;51.996;4.504;2022-07-29T06:15:36;2.93;;;2.93;;
71172;SDS011;58875;51.996;4.504;2022-07-29T06:18:02;3.27;;;3.27;;
71172;SDS011;58875;51.996;4.504;2022-07-29T06:20:28;3.25;;;3.25;;
71172;SDS011;58875;51.996;4.504;2022-07-29T06:22:55;3.26;;;3.26;;
71172;SDS011;58875;51.996;4.504;2022-07-29T06:25:21;3.11;;;3.11;;
71172;SDS011;58875;51.996;4.504;2022-07-29T06:27:47;3.11;;;3.11;;
71172;SDS011;58875;51.996;4.504;2022-07-29T06:30:12;3.20;;;3.20;;
71172;SDS011;58875;51.996;4.504;2022-07-29T06:32:38;3.13;;;3.13;;
71172;SDS011;58875;51.996;4.504;2022-07-29T06:35:04;3.23;;;3.23;;
71172;SDS011;58875;51.996;4.504;2022-07-29T06:37:30;3.05;;;3.05;;
71172;SDS011;58875;51.996;4.504;2022-07-29T06:39:56;3.19;;;3.19;;
71172;SDS011;58875;51.996;4.504;2022-07-29T06:42:43;3.27;;;3.27;;
71172;SDS011;58875;51.996;4.504;2022-07-29T06:45:09;2.94;;;2.94;;
71172;SDS011;58875;51.996;4.504;2022-07-29T06:47:36;3.14;;;3.14;;
71172;SDS011;58875;51.996;4.504;2022-07-29T06:50:02;3.21;;;3.21;;
71172;SDS011;58875;51.996;4.504;2022-07-29T06:52:29;3.29;;;3.29;;
71172;SDS011;58875;51.996;4.504;2022-07-29T06:54:54;3.50;;;3.50;;
71172;SDS011;58875;51.996;4.504;2022-07-29T06:57:20;3.23;;;3.23;;
71172;SDS011;58875;51.996;4.504;2022-07-29T06:59:46;3.31;;;3.31;;
71172;SDS011;58875;51.996;4.504;2022-07-29T07:02:12;3.18;;;3.18;;
71172;SDS011;58875;51.996;4.504;2022-07-29T07:04:38;3.38;;;3.38;;
71172;SDS011;58875;51.996;4.504;2022-07-29T07:07:03;3.33;;;3.33;;
71172;SDS011;58875;51.996;4.504;2022-07-29T07:09:29;3.49;;;3.49;;
71172;SDS011;58875;51.996;4.504;2022-07-29T07:11:55;3.39;;;3.39;;
71172;SDS011;58875;51.996;4.504;2022-07-29T07:14:20;3.28;;;3.28;;
71172;SDS011;58875;51.996;4.504;2022-07-29T07:16:46;3.56;;;3.56;;
71172;SDS011;58875;51.996;4.504;2022-07-29T07:19:11;3.50;;;3.50;;
71172;SDS011;58875;51.996;4.504;2022-07-29T07:21:37;3.21;;;3.21;;
71172;SDS011;58875;51.996;4.504;2022-07-29T07:24:03;3.50;;;3.50;;
71172;SDS011;58875;51.996;4.504;2022-07-29T07:26:28;3.42;;;3.42;;
71172;SDS011;58875;51.996;4.504;2022-07-29T07:28:54;3.45;;;3.45;;
71172;SDS011;58875;51.996;4.504;2022-07-29T07:31:20;3.50;;;3.50;;
71172;SDS011;58875;51.996;4.504;2022-07-29T07:33:45;3.24;;;3.24;;
71172;SDS011;58875;51.996;4.504;2022-07-29T07:36:11;3.16;;;3.16;;
71172;SDS011;58875;51.996;4.504;2022-07-29T07:38:37;3.27;;;3.27;;
71172;SDS011;58875;51.996;4.504;2022-07-29T07:41:02;3.47;;;3.47;;
71172;SDS011;58875;51.996;4.504;2022-07-29T07:43:28;3.44;;;3.44;;
71172;SDS011;58875;51.996;4.504;2022-07-29T07:45:54;3.47;;;3.47;;
71172;SDS011;58875;51.996;4.504;2022-07-29T07:48:19;3.38;;;3.38;;
71172;SDS011;58875;51.996;4.504;2022-07-29T07:50:47;3.54;;;3.54;;
71172;SDS011;58875;51.996;4.504;2022-07-29T07:53:14;3.57;;;3.57;;
71172;SDS011;58875;51.996;4.504;2022-07-29T07:55:40;3.41;;;3.41;;
71172;SDS011;58875;51.996;4.504;2022-07-29T07:58:08;3.24;;;3.24;;
71172;SDS011;58875;51.996;4.504;2022-07-29T08:00:34;3.08;;;3.08;;
71172;SDS011;58875;51.996;4.504;2022-07-29T08:02:59;3.19;;;3.19;;
71172;SDS011;58875;51.996;4.504;2022-07-29T08:05:25;3.38;;;3.38;;
71172;SDS011;58875;51.996;4.504;2022-07-29T08:07:50;3.33;;;3.33;;
71172;SDS011;58875;51.996;4.504;2022-07-29T08:10:17;3.39;;;3.39;;
71172;SDS011;58875;51.996;4.504;2022-07-29T08:13:06;3.55;;;3.55;;
71172;SDS011;58875;51.996;4.504;2022-07-29T08:15:32;3.54;;;3.54;;
71172;SDS011;58875;51.996;4.504;2022-07-29T08:17:58;3.28;;;3.28;;
71172;SDS011;58875;51.996;4.504;2022-07-29T08:20:24;3.32;;;3.32;;
71172;SDS011;58875;51.996;4.504;2022-07-29T08:22:49;3.44;;;3.44;;
71172;SDS011;58875;51.996;4.504;2022-07-29T08:25:15;3.47;;;3.47;;
71172;SDS011;58875;51.996;4.504;2022-07-29T08:27:45;3.55;;;3.55;;
71172;SDS011;58875;51.996;4.504;2022-07-29T08:30:12;3.44;;;3.44;;
71172;SDS011;58875;51.996;4.504;2022-07-29T08:32:38;3.76;;;3.76;;
71172;SDS011;58875;51.996;4.504;2022-07-29T08:35:04;3.89;;;3.89;;
71172;SDS011;58875;51.996;4.504;2022-07-29T08:37:30;3.65;;;3.65;;
71172;SDS011;58875;51.996;4.504;2022-07-29T08:39:55;3.64;;;3.64;;
71172;SDS011;58875;51.996;4.504;2022-07-29T08:42:21;3.75;;;3.75;;
71172;SDS011;58875;51.996;4.504;2022-07-29T08:44:46;3.48;;;3.48;;
71172;SDS011;58875;51.996;4.504;2022-07-29T08:47:15;3.62;;;3.62;;
71172;SDS011;58875;51.996;4.504;2022-07-29T08:49:41;3.68;;;3.68;;
71172;SDS011;58875;51.996;4.504;2022-07-29T08:52:09;3.56;;;3.56;;
71172;SDS011;58875;51.996;4.504;2022-07-29T08:54:37;3.24;;;3.24;;
71172;SDS011;58875;51.996;4.504;2022-07-29T08:57:04;3.48;;;3.48;;
71172;SDS011;58875;51.996;4.504;2022-07-29T08:59:30;3.28;;;3.28;;
71172;SDS011;58875;51.996;4.504;2022-07-29T09:02:00;3.17;;;3.17;;
71172;SDS011;58875;51.996;4.504;2022-07-29T09:04:27;3.39;;;3.39;;
71172;SDS011;58875;51.996;4.504;2022-07-29T09:06:59;3.91;;;3.91;;
71172;SDS011;58875;51.996;4.504;2022-07-29T09:09:29;3.60;;;3.60;;
71172;SDS011;58875;51.996;4.504;2022-07-29T09:11:55;3.46;;;3.46;;
71172;SDS011;58875;51.996;4.504;2022-07-29T09:14:21;3.50;;;3.50;;
71172;SDS011;58875;51.996;4.504;2022-07-29T09:16:51;3.60;;;3.60;;
71172;SDS011;58875;51.996;4.504;2022-07-29T09:19:23;3.51;;;3.51;;
71172;SDS011;58875;51.996;4.504;2022-07-29T09:21:55;3.77;;;3.77;;
71172;SDS011;58875;51.996;4.504;2022-07-29T09:26:59;3.50;;;3.50;;
71172;SDS011;58875;51.996;4.504;2022-07-29T09:29:26;3.57;;;3.57;;
71172;SDS011;58875;51.996;4.504;2022-07-29T09:31:53;4.07;;;4.07;;
71172;SDS011;58875;51.996;4.504;2022-07-29T09:34:23;3.75;;;3.75;;
71172;SDS011;58875;51.996;4.504;2022-07-29T09:36:53;3.96;;;3.96;;
71172;SDS011;58875;51.996;4.504;2022-07-29T09:39:27;4.01;;;4.01;;
71172;SDS011;58875;51.996;4.504;2022-07-29T09:41:56;4.29;;;4.29;;
71172;SDS011;58875;51.996;4.504;2022-07-29T09:44:23;4.08;;;4.08;;
71172;SDS011;58875;51.996;4.504;2022-07-29T09:49:36;3.66;;;3.66;;
71172;SDS011;58875;51.996;4.504;2022-07-29T09:52:15;3.87;;;3.87;;
71172;SDS011;58875;51.996;4.504;2022-07-29T09:54:41;3.81;;;3.81;;
71172;SDS011;58875;51.996;4.504;2022-07-29T09:57:07;4.23;;;4.23;;
71172;SDS011;58875;51.996;4.504;2022-07-29T09:59:55;4.34;;;4.34;;
71172;SDS011;58875;51.996;4.504;2022-07-29T10:02:28;4.38;;;4.38;;
71172;SDS011;58875;51.996;4.504;2022-07-29T10:04:55;4.12;;;4.12;;
71172;SDS011;58875;51.996;4.504;2022-07-29T10:07:20;4.02;;;4.02;;
71172;SDS011;58875;51.996;4.504;2022-07-29T10:09:56;4.17;;;4.17;;
71172;SDS011;58875;51.996;4.504;2022-07-29T10:12:23;4.52;;;4.52;;
71172;SDS011;58875;51.996;4.504;2022-07-29T10:14:50;3.87;;;3.87;;
71172;SDS011;58875;51.996;4.504;2022-07-29T10:17:16;3.38;;;3.38;;
71172;SDS011;58875;51.996;4.504;2022-07-29T10:19:43;3.93;;;3.93;;
71172;SDS011;58875;51.996;4.504;2022-07-29T10:22:09;3.55;;;3.55;;
71172;SDS011;58875;51.996;4.504;2022-07-29T10:24:36;3.69;;;3.69;;
71172;SDS011;58875;51.996;4.504;2022-07-29T10:27:04;3.82;;;3.82;;
71172;SDS011;58875;51.996;4.504;2022-07-29T10:29:31;3.94;;;3.94;;
71172;SDS011;58875;51.996;4.504;2022-07-29T10:37:20;3.69;;;3.69;;
71172;SDS011;58875;51.996;4.504;2022-07-29T10:40:03;3.46;;;3.46;;
71172;SDS011;58875;51.996;4.504;2022-07-29T10:43:06;3.42;;;3.42;;
71172;SDS011;58875;51.996;4.504;2022-07-29T10:45:45;2.91;;;2.91;;
71172;SDS011;58875;51.996;4.504;2022-07-29T10:48:13;3.23;;;3.23;;
71172;SDS011;58875;51.996;4.504;2022-07-29T10:50:55;3.11;;;3.11;;
71172;SDS011;58875;51.996;4.504;2022-07-29T10:53:24;3.40;;;3.40;;
71172;SDS011;58875;51.996;4.504;2022-07-29T10:56:23;3.38;;;3.38;;
71172;SDS011;58875;51.996;4.504;2022-07-29T11:01:56;3.66;;;3.66;;
71172;SDS011;58875;51.996;4.504;2022-07-29T11:07:09;2.99;;;2.99;;
71172;SDS011;58875;51.996;4.504;2022-07-29T11:09:36;3.80;;;3.80;;
71172;SDS011;58875;51.996;4.504;2022-07-29T11:12:03;3.67;;;3.67;;
71172;SDS011;58875;51.996;4.504;2022-07-29T11:17:27;3.68;;;3.68;;
71172;SDS011;58875;51.996;4.504;2022-07-29T11:22:57;3.45;;;3.45;;
71172;SDS011;58875;51.996;4.504;2022-07-29T11:25:23;3.64;;;3.64;;
71172;SDS011;58875;51.996;4.504;2022-07-29T11:27:49;2.95;;;2.95;;
71172;SDS011;58875;51.996;4.504;2022-07-29T11:30:17;2.97;;;2.97;;
71172;SDS011;58875;51.996;4.504;2022-07-29T11:32:43;2.79;;;2.79;;
71172;SDS011;58875;51.996;4.504;2022-07-29T11:35:14;3.27;;;3.27;;
71172;SDS011;58875;51.996;4.504;2022-07-29T11:37:40;3.06;;;3.06;;
71172;SDS011;58875;51.996;4.504;2022-07-29T11:45:07;2.62;;;2.62;;
71172;SDS011;58875;51.996;4.504;2022-07-29T11:47:46;2.57;;;2.57;;
71172;SDS011;58875;51.996;4.504;2022-07-29T11:50:14;2.54;;;2.54;;
71172;SDS011;58875;51.996;4.504;2022-07-29T11:52:43;2.54;;;2.54;;
71172;SDS011;58875;51.996;4.504;2022-07-29T11:55:18;2.60;;;2.60;;
71172;SDS011;58875;51.996;4.504;2022-07-29T11:57:59;2.84;;;2.84;;
71172;SDS011;58875;51.996;4.504;2022-07-29T12:00:27;2.88;;;2.88;;
71172;SDS011;58875;51.996;4.504;2022-07-29T12:02:56;2.60;;;2.60;;
71172;SDS011;58875;51.996;4.504;2022-07-29T12:05:31;2.61;;;2.61;;
71172;SDS011;58875;51.996;4.504;2022-07-29T12:08:04;2.63;;;2.63;;
71172;SDS011;58875;51.996;4.504;2022-07-29T12:10:34;2.67;;;2.67;;
71172;SDS011;58875;51.996;4.504;2022-07-29T12:13:00;2.76;;;2.76;;
71172;SDS011;58875;51.996;4.504;2022-07-29T12:15:26;2.77;;;2.77;;
71172;SDS011;58875;51.996;4.504;2022-07-29T12:17:51;3.03;;;3.03;;
71172;SDS011;58875;51.996;4.504;2022-07-29T12:20:27;2.91;;;2.91;;
71172;SDS011;58875;51.996;4.504;2022-07-29T12:22:54;3.13;;;3.13;;
71172;SDS011;58875;51.996;4.504;2022-07-29T12:25:22;3.30;;;3.30;;
71172;SDS011;58875;51.996;4.504;2022-07-29T12:27:58;2.97;;;2.97;;
71172;SDS011;58875;51.996;4.504;2022-07-29T12:30:34;3.20;;;3.20;;
71172;SDS011;58875;51.996;4.504;2022-07-29T12:33:01;3.31;;;3.31;;
71172;SDS011;58875;51.996;4.504;2022-07-29T12:35:26;3.50;;;3.50;;
71172;SDS011;58875;51.996;4.504;2022-07-29T12:37:52;3.32;;;3.32;;
71172;SDS011;58875;51.996;4.504;2022-07-29T12:40:20;2.96;;;2.96;;
71172;SDS011;58875;51.996;4.504;2022-07-29T12:45:38;3.11;;;3.11;;
71172;SDS011;58875;51.996;4.504;2022-07-29T12:48:05;3.05;;;3.05;;
71172;SDS011;58875;51.996;4.504;2022-07-29T12:53:24;2.96;;;2.96;;
71172;SDS011;58875;51.996;4.504;2022-07-29T12:55:52;3.30;;;3.30;;
71172;SDS011;58875;51.996;4.504;2022-07-29T12:58:35;3.73;;;3.73;;
71172;SDS011;58875;51.996;4.504;2022-07-29T13:01:10;3.40;;;3.40;;
71172;SDS011;58875;51.996;4.504;2022-07-29T13:09:07;2.98;;;2.98;;
71172;SDS011;58875;51.996;4.504;2022-07-29T13:14:06;3.14;;;3.14;;
71172;SDS011;58875;51.996;4.504;2022-07-29T13:16:34;2.81;;;2.81;;
71172;SDS011;58875;51.996;4.504;2022-07-29T13:19:04;2.72;;;2.72;;
71172;SDS011;58875;51.996;4.504;2022-07-29T13:21:31;2.74;;;2.74;;
71172;SDS011;58875;51.996;4.504;2022-07-29T13:23:57;2.80;;;2.80;;
71172;SDS011;58875;51.996;4.504;2022-07-29T13:26:23;2.80;;;2.80;;
71172;SDS011;58875;51.996;4.504;2022-07-29T13:28:48;3.01;;;3.01;;
71172;SDS011;58875;51.996;4.504;2022-07-29T13:31:14;3.08;;;3.08;;
71172;SDS011;58875;51.996;4.504;2022-07-29T13:33:40;2.75;;;2.75;;
71172;SDS011;58875;51.996;4.504;2022-07-29T13:36:06;2.57;;;2.57;;
71172;SDS011;58875;51.996;4.504;2022-07-29T13:38:31;2.82;;;2.82;;
71172;SDS011;58875;51.996;4.504;2022-07-29T13:40:57;2.99;;;2.99;;
71172;SDS011;58875;51.996;4.504;2022-07-29T13:43:23;2.69;;;2.69;;
71172;SDS011;58875;51.996;4.504;2022-07-29T13:45:49;2.92;;;2.92;;
71172;SDS011;58875;51.996;4.504;2022-07-29T13:48:14;2.92;;;2.92;;
71172;SDS011;58875;51.996;4.504;2022-07-29T13:50:40;2.97;;;2.97;;
71172;SDS011;58875;51.996;4.504;2022-07-29T13:53:05;2.94;;;2.94;;
71172;SDS011;58875;51.996;4.504;2022-07-29T13:55:31;2.98;;;2.98;;
71172;SDS011;58875;51.996;4.504;2022-07-29T13:57:56;2.70;;;2.70;;
71172;SDS011;58875;51.996;4.504;2022-07-29T14:00:22;2.60;;;2.60;;
71172;SDS011;58875;51.996;4.504;2022-07-29T14:02:48;2.64;;;2.64;;
71172;SDS011;58875;51.996;4.504;2022-07-29T14:05:14;2.57;;;2.57;;
71172;SDS011;58875;51.996;4.504;2022-07-29T14:07:39;2.33;;;2.33;;
71172;SDS011;58875;51.996;4.504;2022-07-29T14:10:05;2.60;;;2.60;;
71172;SDS011;58875;51.996;4.504;2022-07-29T14:12:31;2.80;;;2.80;;
71172;SDS011;58875;51.996;4.504;2022-07-29T14:14:56;2.59;;;2.59;;
71172;SDS011;58875;51.996;4.504;2022-07-29T14:17:22;2.51;;;2.51;;
71172;SDS011;58875;51.996;4.504;2022-07-29T14:19:48;2.49;;;2.49;;
71172;SDS011;58875;51.996;4.504;2022-07-29T14:22:14;2.50;;;2.50;;
71172;SDS011;58875;51.996;4.504;2022-07-29T14:24:39;2.55;;;2.55;;
71172;SDS011;58875;51.996;4.504;2022-07-29T14:27:05;2.42;;;2.42;;
71172;SDS011;58875;51.996;4.504;2022-07-29T14:29:32;2.85;;;2.85;;
71172;SDS011;58875;51.996;4.504;2022-07-29T14:31:59;2.83;;;2.83;;
71172;SDS011;58875;51.996;4.504;2022-07-29T14:34:24;2.60;;;2.60;;
71172;SDS011;58875;51.996;4.504;2022-07-29T14:36:50;2.83;;;2.83;;
71172;SDS011;58875;51.996;4.504;2022-07-29T14:39:16;3.03;;;3.03;;
71172;SDS011;58875;51.996;4.504;2022-07-29T14:41:42;3.12;;;3.12;;
71172;SDS011;58875;51.996;4.504;2022-07-29T14:44:08;2.72;;;2.72;;
71172;SDS011;58875;51.996;4.504;2022-07-29T14:46:37;2.81;;;2.81;;
71172;SDS011;58875;51.996;4.504;2022-07-29T14:49:03;2.80;;;2.80;;
71172;SDS011;58875;51.996;4.504;2022-07-29T14:51:28;2.86;;;2.86;;
71172;SDS011;58875;51.996;4.504;2022-07-29T14:53:54;2.82;;;2.82;;
71172;SDS011;58875;51.996;4.504;2022-07-29T14:56:21;2.68;;;2.68;;
71172;SDS011;58875;51.996;4.504;2022-07-29T14:58:46;2.77;;;2.77;;
71172;SDS011;58875;51.996;4.504;2022-07-29T15:01:12;2.82;;;2.82;;
71172;SDS011;58875;51.996;4.504;2022-07-29T15:03:38;2.74;;;2.74;;
71172;SDS011;58875;51.996;4.504;2022-07-29T15:06:03;2.67;;;2.67;;
71172;SDS011;58875;51.996;4.504;2022-07-29T15:08:29;2.82;;;2.82;;
71172;SDS011;58875;51.996;4.504;2022-07-29T15:10:55;2.87;;;2.87;;
71172;SDS011;58875;51.996;4.504;2022-07-29T15:13:22;2.71;;;2.71;;
71172;SDS011;58875;51.996;4.504;2022-07-29T15:15:48;2.69;;;2.69;;
71172;SDS011;58875;51.996;4.504;2022-07-29T15:18:15;2.73;;;2.73;;
71172;SDS011;58875;51.996;4.504;2022-07-29T15:20:40;2.75;;;2.75;;
71172;SDS011;58875;51.996;4.504;2022-07-29T15:23:06;2.57;;;2.57;;
71172;SDS011;58875;51.996;4.504;2022-07-29T15:25:34;2.43;;;2.43;;
71172;SDS011;58875;51.996;4.504;2022-07-29T15:28:01;2.68;;;2.68;;
71172;SDS011;58875;51.996;4.504;2022-07-29T15:30:29;2.62;;;2.62;;
71172;SDS011;58875;51.996;4.504;2022-07-29T15:32:55;2.62;;;2.62;;
71172;SDS011;58875;51.996;4.504;2022-07-29T15:35:21;2.58;;;2.58;;
71172;SDS011;58875;51.996;4.504;2022-07-29T15:37:46;2.74;;;2.74;;
71172;SDS011;58875;51.996;4.504;2022-07-29T15:40:12;2.61;;;2.61;;